createdAt,value
2023-04-28T00:01:16.465Z,10.90
2023-04-28T00:05:25.322Z,10.80
2023-04-28T00:09:34.167Z,10.80
2023-04-28T00:13:42.984Z,10.70
2023-04-28T00:17:51.760Z,10.70
2023-04-28T00:22:00.963Z,10.70
2023-04-28T00:26:09.794Z,10.60
2023-04-28T00:30:18.562Z,10.60
2023-04-28T00:34:27.174Z,10.60
2023-04-28T00:38:36.105Z,10.50
2023-04-28T00:42:44.709Z,10.40
2023-04-28T00:46:53.465Z,10.40
2023-04-28T00:51:03.102Z,10.40
2023-04-28T00:55:12.044Z,10.40
2023-04-28T00:59:20.671Z,10.40
2023-04-28T01:03:30.063Z,10.40
2023-04-28T01:07:40.282Z,10.30
2023-04-28T01:11:49.012Z,10.30
2023-04-28T01:15:58.048Z,10.30
2023-04-28T01:20:08.025Z,10.30
2023-04-28T01:24:17.513Z,10.30
2023-04-28T01:28:26.907Z,10.30
2023-04-28T01:32:35.573Z,10.30
2023-04-28T01:36:44.268Z,10.30
2023-04-28T01:40:54.535Z,10.30
2023-04-28T01:45:05.103Z,10.30
2023-04-28T01:49:13.734Z,10.30
2023-04-28T01:53:22.362Z,10.30
2023-04-28T01:57:30.989Z,10.20
2023-04-28T02:01:40.148Z,10.10
2023-04-28T02:05:48.822Z,10.10
2023-04-28T02:09:57.452Z,10.10
2023-04-28T02:14:06.050Z,10.10
2023-04-28T02:18:14.639Z,10.10
2023-04-28T02:22:23.544Z,10.10
2023-04-28T02:26:32.575Z,10.10
2023-04-28T02:30:41.451Z,10.10
2023-04-28T02:34:57.397Z,10.10
2023-04-28T02:39:06.077Z,10.10
2023-04-28T02:43:14.708Z,10.10
2023-04-28T02:47:23.337Z,10.00
2023-04-28T02:51:31.986Z,10.10
2023-04-28T02:55:40.698Z,10.10
2023-04-28T03:04:00.017Z,10.10
2023-04-28T03:08:09.071Z,10.10
2023-04-28T03:12:17.704Z,10.10
2023-04-28T03:16:26.562Z,10.10
2023-04-28T03:20:35.196Z,10.10
2023-04-28T03:24:43.886Z,10.10
2023-04-28T03:28:53.126Z,10.10
2023-04-28T03:33:01.923Z,10.20
2023-04-28T03:37:11.004Z,10.20
2023-04-28T03:41:19.627Z,10.20
2023-04-28T03:45:28.217Z,10.20
2023-04-28T03:49:36.824Z,10.20
2023-04-28T03:53:45.470Z,10.20
2023-04-28T03:57:54.241Z,10.20
2023-04-28T04:02:02.878Z,10.20
2023-04-28T04:06:11.483Z,10.20
2023-04-28T04:10:20.234Z,10.20
2023-04-28T04:14:28.864Z,10.20
2023-04-28T04:18:37.490Z,10.20
2023-04-28T04:22:46.122Z,10.20
2023-04-28T04:26:54.756Z,10.20
2023-04-28T04:31:03.404Z,10.20
2023-04-28T04:35:12.217Z,10.30
2023-04-28T04:39:20.841Z,10.30
2023-04-28T04:43:29.466Z,10.30
2023-04-28T04:47:58.224Z,10.30
2023-04-28T04:52:07.011Z,10.30
2023-04-28T04:56:15.942Z,10.40
2023-04-28T05:00:24.565Z,10.40
2023-04-28T05:04:33.391Z,10.40
2023-04-28T05:08:42.140Z,10.40
2023-04-28T05:12:50.966Z,10.40
2023-04-28T05:16:59.856Z,10.40
2023-04-28T05:21:08.738Z,10.40
2023-04-28T05:25:17.632Z,10.40
2023-04-28T05:29:26.412Z,10.50
2023-04-28T05:33:35.095Z,10.60
2023-04-28T05:37:44.980Z,10.60
2023-04-28T05:41:53.607Z,10.70
2023-04-28T05:46:02.704Z,10.80
2023-04-28T05:50:11.750Z,10.80
2023-04-28T05:54:20.434Z,10.90
2023-04-28T05:58:29.671Z,10.90
2023-04-28T06:02:38.516Z,10.80
2023-04-28T06:06:47.746Z,10.80
2023-04-28T06:10:56.379Z,10.80
2023-04-28T06:15:06.447Z,10.80
2023-04-28T06:19:16.808Z,10.80
2023-04-28T06:23:25.435Z,10.80
2023-04-28T06:27:34.071Z,10.80
2023-04-28T06:31:42.817Z,10.90
2023-04-28T06:35:52.040Z,10.90
2023-04-28T06:40:00.616Z,11.00
2023-04-28T06:44:09.337Z,11.10
2023-04-28T06:48:18.128Z,11.20
2023-04-28T06:52:38.442Z,11.30
2023-04-28T06:56:38.559Z,11.40
2023-04-28T07:00:47.198Z,11.40
2023-04-28T07:04:56.025Z,11.50
2023-04-28T07:09:04.722Z,11.60
2023-04-28T07:13:13.332Z,11.70
2023-04-28T07:17:21.948Z,11.90
2023-04-28T07:21:30.562Z,12.00
2023-04-28T07:25:40.848Z,12.10
2023-04-28T07:29:49.663Z,12.20
2023-04-28T07:33:58.209Z,12.30
2023-04-28T07:38:07.003Z,12.40
2023-04-28T07:42:15.736Z,12.50
2023-04-28T07:46:24.486Z,12.50
2023-04-28T07:50:33.773Z,12.50
2023-04-28T07:54:42.443Z,12.60
2023-04-28T07:58:51.982Z,12.60
2023-04-28T08:03:00.687Z,12.60
2023-04-28T08:07:10.466Z,12.70
2023-04-28T08:11:19.094Z,12.80
2023-04-28T08:15:30.332Z,12.90
2023-04-28T08:19:39.117Z,13.00
2023-04-28T08:23:47.746Z,13.20
2023-04-28T08:27:57.633Z,13.40
2023-04-28T08:32:06.861Z,13.50
2023-04-28T08:36:15.783Z,13.60
2023-04-28T08:40:25.338Z,13.70
2023-04-28T08:44:40.681Z,13.80
2023-04-28T08:48:50.801Z,13.80
2023-04-28T08:52:59.588Z,13.80
2023-04-28T08:57:11.274Z,13.80
2023-04-28T09:01:19.974Z,13.90
2023-04-28T09:05:28.708Z,14.00
2023-04-28T09:09:39.156Z,14.00
2023-04-28T09:13:47.774Z,14.20
2023-04-28T09:17:56.460Z,14.20
2023-04-28T09:22:17.711Z,14.10
2023-04-28T09:26:18.112Z,14.20
2023-04-28T09:30:41.730Z,14.10
2023-04-28T09:34:53.565Z,14.00
2023-04-28T09:39:03.006Z,14.10
2023-04-28T09:43:26.180Z,14.20
2023-04-28T09:47:37.996Z,14.40
2023-04-28T09:51:46.604Z,14.40
2023-04-28T09:56:14.589Z,14.40
2023-04-28T10:00:24.605Z,14.40
2023-04-28T10:04:33.869Z,14.40
2023-04-28T10:08:42.941Z,14.40
2023-04-28T10:12:52.412Z,14.40
2023-04-28T10:17:03.142Z,14.40
2023-04-28T10:21:15.539Z,14.50
2023-04-28T10:25:29.747Z,14.40
2023-04-28T10:29:38.437Z,14.50
2023-04-28T10:33:47.035Z,14.40
2023-04-28T10:38:15.301Z,14.40
2023-04-28T10:42:53.016Z,14.50
2023-04-28T10:47:09.709Z,14.50
2023-04-28T10:51:22.527Z,14.50
2023-04-28T10:55:52.893Z,14.60
2023-04-28T11:00:07.660Z,14.60
2023-04-28T11:04:18.173Z,14.60
2023-04-28T11:08:33.386Z,14.50
2023-04-28T11:13:20.129Z,14.50
2023-04-28T11:17:37.972Z,14.40
2023-04-28T11:21:48.135Z,14.50
2023-04-28T11:25:58.177Z,14.40
2023-04-28T11:30:27.814Z,14.40
2023-04-28T11:34:37.745Z,14.60
2023-04-28T11:38:47.117Z,14.60
2023-04-28T11:42:58.334Z,14.70
2023-04-28T11:47:07.868Z,14.70
2023-04-28T11:51:36.456Z,14.70
2023-04-28T11:55:45.601Z,14.80
2023-04-28T11:59:54.656Z,15.00
2023-04-28T12:04:03.494Z,15.10
2023-04-28T12:08:12.302Z,15.30
2023-04-28T12:12:40.545Z,15.50
2023-04-28T12:16:44.584Z,15.50
2023-04-28T12:20:54.072Z,15.40
2023-04-28T12:25:13.060Z,15.60
2023-04-28T12:29:41.777Z,15.60
2023-04-28T12:33:50.750Z,16.00
2023-04-28T12:38:00.423Z,16.40
2023-04-28T12:42:09.506Z,16.60
2023-04-28T12:46:18.260Z,16.90
2023-04-28T12:50:27.845Z,17.10
2023-04-28T12:54:36.828Z,16.90
2023-04-28T12:58:45.527Z,16.80
2023-04-28T13:02:54.558Z,16.70
2023-04-28T13:07:04.716Z,16.60
2023-04-28T13:11:22.611Z,16.60
2023-04-28T13:15:24.957Z,16.80
2023-04-28T13:19:34.290Z,16.70
2023-04-28T13:23:42.920Z,16.70
2023-04-28T13:27:52.063Z,16.70
2023-04-28T13:32:00.768Z,16.80
2023-04-28T13:36:10.137Z,17.00
2023-04-28T13:40:19.218Z,17.10
2023-04-28T13:44:27.903Z,17.30
2023-04-28T13:48:37.075Z,17.30
2023-04-28T13:52:45.684Z,17.10
2023-04-28T13:56:55.176Z,17.10
2023-04-28T14:01:04.545Z,17.20
2023-04-28T14:05:13.505Z,17.00
2023-04-28T14:09:22.232Z,17.00
2023-04-28T14:13:30.858Z,17.30
2023-04-28T14:17:39.564Z,17.60
2023-04-28T14:21:48.626Z,17.50
2023-04-28T14:25:58.060Z,17.40
2023-04-28T14:30:08.683Z,17.40
2023-04-28T14:34:17.275Z,17.40
2023-04-28T14:38:25.915Z,17.40
2023-04-28T14:42:37.097Z,17.20
2023-04-28T14:46:45.786Z,17.20
2023-04-28T14:50:54.659Z,17.10
2023-04-28T14:55:05.244Z,16.80
2023-04-28T14:59:14.194Z,16.60
2023-04-28T15:03:22.904Z,16.50
2023-04-28T15:07:32.700Z,16.20
2023-04-28T15:11:41.516Z,15.90
2023-04-28T15:15:51.645Z,15.90
2023-04-28T15:20:00.529Z,15.70
2023-04-28T15:24:09.122Z,16.00
2023-04-28T15:28:17.749Z,16.00
2023-04-28T15:32:27.331Z,16.10
2023-04-28T15:36:40.624Z,16.30
2023-04-28T15:40:49.878Z,16.40
2023-04-28T15:44:58.860Z,16.40
2023-04-28T15:49:11.020Z,16.40
2023-04-28T15:53:22.345Z,16.50
2023-04-28T15:57:30.969Z,16.40
2023-04-28T16:01:39.611Z,16.40
2023-04-28T16:05:48.360Z,16.40
2023-04-28T16:09:57.045Z,16.20
2023-04-28T16:14:05.686Z,16.00
2023-04-28T16:18:14.398Z,16.00
2023-04-28T16:22:23.197Z,15.90
2023-04-28T16:26:32.075Z,15.80
2023-04-28T16:30:41.009Z,15.60
2023-04-28T16:34:49.883Z,15.60
2023-04-28T16:38:58.781Z,15.60
2023-04-28T16:43:07.522Z,15.60
2023-04-28T16:47:16.249Z,15.60
2023-04-28T16:51:24.867Z,15.60
2023-04-28T16:55:33.525Z,15.60
2023-04-28T16:59:42.228Z,15.60
2023-04-28T17:03:52.325Z,15.50
2023-04-28T17:08:01.529Z,15.50
2023-04-28T17:12:14.186Z,15.50
2023-04-28T17:16:27.702Z,15.30
2023-04-28T17:20:36.428Z,15.40
2023-04-28T17:24:45.911Z,15.30
2023-04-28T17:29:13.937Z,15.30
2023-04-28T17:33:22.691Z,15.20
2023-04-28T17:37:35.583Z,15.10
2023-04-28T17:41:45.214Z,15.00
2023-04-28T17:45:54.836Z,15.00
2023-04-28T17:50:06.678Z,14.90
2023-04-28T17:54:15.462Z,14.80
2023-04-28T17:58:43.452Z,14.70
2023-04-28T18:02:55.068Z,14.70
2023-04-28T18:07:06.725Z,14.80
2023-04-28T18:11:15.409Z,14.70
2023-04-28T18:15:24.104Z,14.70
2023-04-28T18:19:32.655Z,14.60
2023-04-28T18:23:41.500Z,14.70
2023-04-28T18:27:50.602Z,14.60
2023-04-28T18:31:59.261Z,14.70
2023-04-28T18:36:08.079Z,14.60
2023-04-28T18:40:16.913Z,14.70
2023-04-28T18:44:25.627Z,14.60
2023-04-28T18:48:34.673Z,14.60
2023-04-28T18:53:04.193Z,14.60
2023-04-28T18:57:12.920Z,14.50
2023-04-28T19:01:24.935Z,14.40
2023-04-28T19:05:34.583Z,14.40
2023-04-28T19:09:43.210Z,14.30
2023-04-28T19:13:52.859Z,14.30
2023-04-28T19:18:02.236Z,14.40
2023-04-28T19:22:40.208Z,14.30
2023-04-28T19:26:49.310Z,14.30
2023-04-28T19:30:59.315Z,14.30
2023-04-28T19:35:09.322Z,14.30
2023-04-28T19:39:18.022Z,14.30
2023-04-28T19:43:26.903Z,14.30
2023-04-28T19:47:36.852Z,14.40
2023-04-28T19:51:45.747Z,14.40
2023-04-28T19:55:54.800Z,14.30
2023-04-28T20:00:03.408Z,14.20
2023-04-28T20:04:14.267Z,14.20
2023-04-28T20:08:24.721Z,14.10
2023-04-28T20:12:33.370Z,14.10
2023-04-28T20:16:42.305Z,14.00
2023-04-28T20:20:53.074Z,13.90
2023-04-28T20:25:03.687Z,13.80
2023-04-28T20:29:12.522Z,13.80
2023-04-28T20:33:23.013Z,13.80
2023-04-28T20:37:31.985Z,13.70
2023-04-28T20:41:42.228Z,13.70
2023-04-28T20:45:51.001Z,13.80
2023-04-28T20:49:59.655Z,13.80
2023-04-28T20:54:08.488Z,13.70
2023-04-28T20:58:17.123Z,13.70
2023-04-28T21:02:26.140Z,13.80
2023-04-28T21:06:34.889Z,13.70
2023-04-28T21:10:43.439Z,13.70
2023-04-28T21:14:52.073Z,13.70
2023-04-28T21:19:01.094Z,13.80
2023-04-28T21:23:28.974Z,13.80
2023-04-28T21:27:37.611Z,13.70
2023-04-28T21:31:47.009Z,13.60
2023-04-28T21:35:56.090Z,13.50
2023-04-28T21:40:06.645Z,13.40
2023-04-28T21:44:16.506Z,13.40
2023-04-28T21:48:25.041Z,13.40
2023-04-28T21:52:33.768Z,13.40
2023-04-28T21:56:42.495Z,13.30
2023-04-28T22:00:52.190Z,13.20
2023-04-28T22:05:00.905Z,13.00
2023-04-28T22:09:09.992Z,13.00
2023-04-28T22:13:18.598Z,12.90
2023-04-28T22:17:27.482Z,13.00
2023-04-28T22:21:36.128Z,13.00
2023-04-28T22:25:46.394Z,12.80
2023-04-28T22:29:54.996Z,12.80
2023-04-28T22:34:05.276Z,12.70
2023-04-28T22:38:15.846Z,12.70
2023-04-28T22:42:24.586Z,12.60
2023-04-28T22:46:33.276Z,12.60
2023-04-28T22:50:43.573Z,12.60
2023-04-28T22:54:53.538Z,12.60
2023-04-28T22:59:03.117Z,12.50
2023-04-28T23:03:12.058Z,12.60
2023-04-28T23:07:20.868Z,12.60
2023-04-28T23:11:29.798Z,12.60
2023-04-28T23:15:38.417Z,12.60
2023-04-28T23:19:47.049Z,12.50
2023-04-28T23:23:55.975Z,12.30
2023-04-28T23:28:04.849Z,12.30
2023-04-28T23:32:13.556Z,12.30
2023-04-28T23:36:24.230Z,12.30
2023-04-28T23:40:32.867Z,12.30
2023-04-28T23:44:41.688Z,12.10
2023-04-28T23:48:50.834Z,11.90
2023-04-28T23:52:59.466Z,11.90
2023-04-28T23:57:08.020Z,11.90
